Aeroporto :
LOGIN :

Iscrizione | Disclaimer

   EN    FR    IT 

 










Sommario :    VFR   VFR Marginale   IFR   IFR Intensivo   IFR Molto Intensivo
Visibilità : 
Base nubi : 
>= 8 km
>= 3000ft
5 / 8 km
1000 / 3000 ft
1500m / 5 km
500 / 1000 ft
800 / 1500m
200 / 500 ft
< 800m
< 200 ft
Simboli :   Temporali  Nebbia  Neve Forte  Precipitazioni Forti  Vento > 20 kt
SIGMETs :   Varie  Temporali  Ghiacco  Turbolenza  Onda orograficha  Ceneri Vulcaniche







- Altitudine del aeroporto : 1197 ft
- Codice IATA : SPM


ETAD - Spangdahlem Ab

ULTIMO METAR :
  • 230356Z AUTO 00000KT 9999 CLR 02/M01 A3033 RMK AO2 SLP265 T00201006 $

METARs OBSOLETI :
  • 230256Z AUTO 00000KT 9999 CLR 03/00 A3033 RMK AO2 SLP264 T00310000 55001 $
  • 230156Z AUTO 00000KT 9999 CLR 04/00 A3032 RMK AO2 SLP260 T00420003 $

TAF TAF ETAD
Valido dal 22 a 21 ore il 24 a 03 ore UTC


222100Z 2221/2403 VRB06KT 9999 SKC QNH3033INS
BECMG 2306/2307 VRB06KT 8000 BR FEW050 QNH3036INS
BECMG 2314/2315 04015G20KT 9999 BR SCT015 QNH3037INS
BECMG 2318/2319 07012KT 9999 BR SCT010 QNH3037INS TX12/2313Z TN02/2305Z LAST NO AMDS AFT 2203 NEXT 2307
Nessun NOTAM noto per questo aeroporto.



MetMap, La meteo Aeronautica in un colpo d'occhio ! - Copyright ORBIFLY Dicembre 2007 - Disclaimer

ORBIFLY MET'MAP TEAM :

Programmazione e sviluppo : Alexandra Zaïnal
Concezione e sviluppo : Baudouin d'Aumeries
Co-Programmazione e sviluppo : Marc-Olivier Méhu
Supporto tecnico e logistico : Manuel Goepfert
Aiuto per la traduzione : Arnaldo La Scala

Contatto : metmap@orbifly.com




FONTI E CREDITI :

   NOAA